createdAt,value
2022-09-05T00:02:32.212Z,99.90
2022-09-05T00:06:00.171Z,99.90
2022-09-05T00:09:06.327Z,99.90
2022-09-05T00:12:03.244Z,99.90
2022-09-05T00:15:19.343Z,99.90
2022-09-05T00:24:18.451Z,99.90
2022-09-05T00:24:32.400Z,99.90
2022-09-05T00:25:50.608Z,99.90
2022-09-05T00:29:42.057Z,99.90
2022-09-05T00:32:52.303Z,99.90
2022-09-05T00:36:07.076Z,99.90
2022-09-05T00:39:03.297Z,99.90
2022-09-05T00:42:16.928Z,99.90
2022-09-05T00:45:14.588Z,99.90
2022-09-05T00:48:40.948Z,99.90
2022-09-05T00:51:43.651Z,99.90
2022-09-05T00:54:43.604Z,99.90
2022-09-05T00:57:56.296Z,99.90
2022-09-05T01:00:56.944Z,99.90
2022-09-05T01:04:09.596Z,99.90
2022-09-05T01:07:15.948Z,99.90
2022-09-05T01:10:33.896Z,99.90
2022-09-05T01:14:02.552Z,99.90
2022-09-05T01:17:23.515Z,99.90
2022-09-05T01:20:44.063Z,99.90
2022-09-05T01:24:03.222Z,99.90
2022-09-05T01:27:00.224Z,99.90
2022-09-05T01:30:04.312Z,99.90
2022-09-05T01:37:33.593Z,99.90
2022-09-05T01:40:29.518Z,99.90
2022-09-05T01:43:29.613Z,99.90
2022-09-05T01:46:38.828Z,99.90
2022-09-05T01:49:51.415Z,99.90
2022-09-05T01:53:01.527Z,99.90
2022-09-05T01:56:11.169Z,99.90
2022-09-05T01:59:05.860Z,99.90
2022-09-05T02:02:12.023Z,99.90
2022-09-05T02:05:15.321Z,99.90
2022-09-05T02:08:15.203Z,99.90
2022-09-05T02:11:13.231Z,99.90
2022-09-05T02:14:33.765Z,99.90
2022-09-05T02:17:50.413Z,99.90
2022-09-05T02:21:02.504Z,99.90
2022-09-05T02:24:20.746Z,99.90
2022-09-05T02:28:04.855Z,99.90
2022-09-05T02:31:19.867Z,99.90
2022-09-05T02:34:43.046Z,99.90
2022-09-05T02:38:47.135Z,99.90
2022-09-05T02:45:20.201Z,99.90
2022-09-05T02:48:40.939Z,99.90
2022-09-05T02:57:27.451Z,99.90
2022-09-05T02:57:37.040Z,99.90
2022-09-05T02:58:23.785Z,99.90
2022-09-05T03:01:38.581Z,99.90
2022-09-05T03:04:44.256Z,99.90
2022-09-05T03:08:10.287Z,99.90
2022-09-05T03:11:28.515Z,99.90
2022-09-05T03:14:51.354Z,99.90
2022-09-05T03:18:31.514Z,99.90
2022-09-05T03:21:41.710Z,99.90
2022-09-05T03:24:55.608Z,99.90
2022-09-05T03:27:50.116Z,99.90
2022-09-05T03:31:22.563Z,99.90
2022-09-05T03:34:32.053Z,99.90
2022-09-05T03:38:08.116Z,99.90
2022-09-05T03:41:41.051Z,99.90
2022-09-05T03:44:53.406Z,99.90
2022-09-05T03:48:00.605Z,99.90
2022-09-05T03:57:05.817Z,99.90
2022-09-05T03:57:11.565Z,99.90
2022-09-05T03:58:55.797Z,99.90
2022-09-05T04:08:08.391Z,99.90
2022-09-05T04:08:24.290Z,99.90
2022-09-05T04:08:55.396Z,99.90
2022-09-05T04:11:55.658Z,99.90
2022-09-05T04:14:52.839Z,99.90
2022-09-05T04:17:49.035Z,99.90
2022-09-05T04:20:55.310Z,99.90
2022-09-05T04:24:15.728Z,99.90
2022-09-05T04:27:51.666Z,99.90
2022-09-05T04:31:25.494Z,99.90
2022-09-05T04:34:19.661Z,99.90
2022-09-05T04:37:30.318Z,99.90
2022-09-05T04:40:38.777Z,99.90
2022-09-05T04:43:53.953Z,99.90
2022-09-05T04:47:02.749Z,99.90
2022-09-05T04:50:23.711Z,99.90
2022-09-05T04:53:23.994Z,99.90
2022-09-05T04:56:22.330Z,99.90
2022-09-05T05:05:58.818Z,99.90
2022-09-05T05:06:08.227Z,99.90
2022-09-05T05:06:45.493Z,99.90
2022-09-05T05:11:30.317Z,99.90
2022-09-05T05:17:55.977Z,99.90
2022-09-05T05:17:58.201Z,99.90
2022-09-05T05:20:41.906Z,99.90
2022-09-05T05:23:45.105Z,99.90
2022-09-05T05:27:13.268Z,99.90
2022-09-05T05:30:06.628Z,99.90
2022-09-05T05:33:00.530Z,99.90
2022-09-05T05:35:53.173Z,99.90
2022-09-05T05:38:53.615Z,99.90
2022-09-05T05:41:53.106Z,99.90
2022-09-05T05:44:55.817Z,99.90
2022-09-05T05:47:55.369Z,99.90
2022-09-05T05:51:19.460Z,99.90
2022-09-05T05:54:50.616Z,99.90
2022-09-05T05:57:41.440Z,99.90
2022-09-05T06:00:38.408Z,99.90
2022-09-05T06:04:10.928Z,99.90
2022-09-05T06:07:04.847Z,99.90
2022-09-05T06:14:48.174Z,99.90
2022-09-05T06:14:58.707Z,99.90
2022-09-05T06:16:43.427Z,99.90
2022-09-05T06:20:24.239Z,99.90
2022-09-05T06:23:38.532Z,99.90
2022-09-05T06:26:36.976Z,99.90
2022-09-05T06:29:49.356Z,99.90
2022-09-05T06:33:07.632Z,99.90
2022-09-05T06:35:59.079Z,99.90
2022-09-05T06:39:21.695Z,99.90
2022-09-05T06:42:30.575Z,99.90
2022-09-05T06:45:58.551Z,99.90
2022-09-05T06:49:30.178Z,99.90
2022-09-05T06:52:27.833Z,99.90
2022-09-05T06:55:28.154Z,99.90
2022-09-05T06:58:55.988Z,99.90
2022-09-05T07:02:58.678Z,99.90
2022-09-05T07:05:59.108Z,99.90
2022-09-05T07:08:59.735Z,99.90
2022-09-05T07:11:51.516Z,99.90
2022-09-05T07:15:12.524Z,99.90
2022-09-05T07:18:13.592Z,99.90
2022-09-05T07:21:26.501Z,99.90
2022-09-05T07:24:54.287Z,99.90
2022-09-05T07:28:26.011Z,99.90
2022-09-05T07:31:10.529Z,99.90
2022-09-05T07:34:20.943Z,99.90
2022-09-05T07:37:44.498Z,99.90
2022-09-05T07:40:40.560Z,99.70
2022-09-05T07:43:39.687Z,98.90
2022-09-05T07:46:42.144Z,98.80
2022-09-05T07:50:05.118Z,97.00
2022-09-05T07:56:51.678Z,96.50
2022-09-05T07:57:09.204Z,95.50
2022-09-05T07:59:16.145Z,95.20
2022-09-05T08:02:11.783Z,94.60
2022-09-05T08:05:04.696Z,93.10
2022-09-05T08:07:59.227Z,91.70
2022-09-05T08:11:22.018Z,91.10
2022-09-05T08:14:40.733Z,91.10
2022-09-05T08:18:06.072Z,89.40
2022-09-05T08:20:57.080Z,90.20
2022-09-05T08:24:01.415Z,84.60
2022-09-05T08:27:16.801Z,84.40
2022-09-05T08:30:27.507Z,83.20
2022-09-05T08:33:24.928Z,83.00
2022-09-05T08:36:38.776Z,83.30
2022-09-05T08:39:33.754Z,81.90
2022-09-05T08:42:35.124Z,81.00
2022-09-05T08:46:42.800Z,82.30
2022-09-05T08:49:36.992Z,80.50
2022-09-05T08:52:36.903Z,77.50
2022-09-05T08:56:01.412Z,74.60
2022-09-05T08:59:28.134Z,76.50
2022-09-05T09:02:46.888Z,74.70
2022-09-05T09:06:12.254Z,74.50
2022-09-05T09:09:18.397Z,74.50
2022-09-05T09:12:49.911Z,74.90
2022-09-05T09:16:06.574Z,75.60
2022-09-05T09:18:57.976Z,75.60
2022-09-05T09:22:14.127Z,73.30
2022-09-05T09:25:14.188Z,73.50
2022-09-05T09:28:49.464Z,72.60
2022-09-05T09:32:17.449Z,73.60
2022-09-05T09:35:26.407Z,73.50
2022-09-05T09:38:36.735Z,75.10
2022-09-05T09:41:53.135Z,75.10
2022-09-05T09:45:24.782Z,72.20
2022-09-05T09:48:44.771Z,72.80
2022-09-05T09:51:51.383Z,72.90
2022-09-05T09:55:21.030Z,71.80
2022-09-05T09:58:15.443Z,69.60
2022-09-05T10:01:36.537Z,72.10
2022-09-05T10:10:38.088Z,69.90
2022-09-05T10:10:49.152Z,69.20
2022-09-05T10:14:50.031Z,69.80
2022-09-05T10:18:14.181Z,70.00
2022-09-05T10:21:17.255Z,70.80
2022-09-05T10:24:27.202Z,71.30
2022-09-05T10:27:52.976Z,70.50
2022-09-05T10:31:46.632Z,69.80
2022-09-05T10:35:17.457Z,68.40
2022-09-05T10:37:54.310Z,70.30
2022-09-05T10:41:20.371Z,69.70
2022-09-05T10:44:04.007Z,70.80
2022-09-05T10:47:07.221Z,70.50
2022-09-05T10:50:17.758Z,69.20
2022-09-05T10:53:28.413Z,71.30
2022-09-05T10:56:40.027Z,69.70
2022-09-05T11:02:16.159Z,70.40
2022-09-05T11:03:33.716Z,69.10
2022-09-05T11:06:49.398Z,68.90
2022-09-05T11:09:56.036Z,67.40
2022-09-05T11:12:50.453Z,67.50
2022-09-05T11:16:04.850Z,68.70
2022-09-05T11:18:57.405Z,69.10
2022-09-05T11:22:13.776Z,68.80
2022-09-05T11:25:20.461Z,68.80
2022-09-05T11:28:38.430Z,70.10
2022-09-05T11:34:24.700Z,69.60
2022-09-05T11:39:48.559Z,67.60
2022-09-05T11:40:02.803Z,68.80
2022-09-05T11:42:09.847Z,69.60
2022-09-05T11:45:17.333Z,69.60
2022-09-05T11:48:30.385Z,68.90
2022-09-05T11:51:53.066Z,69.00
2022-09-05T11:55:21.801Z,69.20
2022-09-05T11:58:45.120Z,68.70
2022-09-05T12:02:10.993Z,68.10
2022-09-05T12:05:50.766Z,67.90
2022-09-05T12:09:23.614Z,68.30
2022-09-05T12:12:38.955Z,67.40
2022-09-05T12:15:37.727Z,69.10
2022-09-05T12:18:54.334Z,68.00
2022-09-05T12:22:09.063Z,67.40
2022-09-05T12:29:26.217Z,66.20
2022-09-05T12:34:02.716Z,67.20
2022-09-05T12:36:08.455Z,67.00
2022-09-05T12:40:56.524Z,67.10
2022-09-05T12:42:09.528Z,67.30
2022-09-05T12:42:09.934Z,68.00
2022-09-05T12:45:10.003Z,66.60
2022-09-05T12:48:18.361Z,65.80
2022-09-05T12:51:45.031Z,66.70
2022-09-05T12:54:59.186Z,66.70
2022-09-05T13:02:01.476Z,67.00
2022-09-05T13:03:11.725Z,68.20
2022-09-05T13:04:32.589Z,67.90
2022-09-05T13:07:38.984Z,67.80
2022-09-05T13:14:11.616Z,68.60
2022-09-05T13:14:52.606Z,68.10
2022-09-05T13:17:53.298Z,67.90
2022-09-05T13:20:51.701Z,68.50
2022-09-05T13:24:07.589Z,68.70
2022-09-05T13:27:08.750Z,69.80
2022-09-05T13:36:17.280Z,68.70
2022-09-05T13:38:11.854Z,68.90
2022-09-05T13:38:13.079Z,68.10
2022-09-05T13:40:09.956Z,67.80
2022-09-05T13:43:10.917Z,68.80
2022-09-05T13:46:11.200Z,69.30
2022-09-05T13:49:34.165Z,69.70
2022-09-05T13:52:41.729Z,69.00
2022-09-05T13:55:48.521Z,67.80
2022-09-05T13:58:56.490Z,67.40
2022-09-05T14:02:25.832Z,68.30
2022-09-05T14:05:44.685Z,68.10
2022-09-05T14:12:16.930Z,67.50
2022-09-05T14:15:52.796Z,67.00
2022-09-05T14:19:06.218Z,67.50
2022-09-05T14:22:01.010Z,67.80
2022-09-05T14:24:54.513Z,67.80
2022-09-05T14:27:51.142Z,68.20
2022-09-05T14:34:35.365Z,68.90
2022-09-05T14:37:41.132Z,69.90
2022-09-05T14:37:49.873Z,69.10
2022-09-05T14:40:38.695Z,69.60
2022-09-05T14:43:47.845Z,69.50
2022-09-05T14:46:45.571Z,69.80
2022-09-05T14:49:37.213Z,70.30
2022-09-05T14:52:26.812Z,70.10
2022-09-05T15:02:53.271Z,69.70
2022-09-05T15:03:00.474Z,70.50
2022-09-05T15:07:00.454Z,69.30
2022-09-05T15:12:18.427Z,69.70
2022-09-05T15:12:39.718Z,69.70
2022-09-05T15:15:31.672Z,69.60
2022-09-05T15:18:19.732Z,70.10
2022-09-05T15:20:55.752Z,69.40
2022-09-05T15:23:32.602Z,68.50
2022-09-05T15:26:17.454Z,67.50
2022-09-05T15:29:14.514Z,66.10
2022-09-05T15:31:47.540Z,64.10
2022-09-05T15:34:33.626Z,63.50
2022-09-05T15:37:37.124Z,62.60
2022-09-05T15:40:22.905Z,60.50
2022-09-05T15:43:02.496Z,59.50
2022-09-05T15:45:37.879Z,58.40
2022-09-05T15:48:26.526Z,57.10
2022-09-05T15:51:20.136Z,55.90
2022-09-05T15:53:52.849Z,55.00
2022-09-05T15:56:27.061Z,54.00
2022-09-05T15:59:01.805Z,53.10
2022-09-05T16:01:58.535Z,52.70
2022-09-05T16:10:08.194Z,52.90
2022-09-05T16:10:37.858Z,53.30
2022-09-05T16:10:46.604Z,53.30
2022-09-05T16:13:48.363Z,53.50
2022-09-05T16:22:01.254Z,53.00
2022-09-05T16:23:21.114Z,52.50
2022-09-05T16:23:38.194Z,52.30
2022-09-05T16:25:56.732Z,52.20
2022-09-05T16:28:45.276Z,52.00
2022-09-05T16:31:38.763Z,50.60
2022-09-05T16:34:33.941Z,50.50
2022-09-05T16:37:30.459Z,50.30
2022-09-05T16:40:24.257Z,50.10
2022-09-05T16:43:11.922Z,50.00
2022-09-05T16:45:44.661Z,49.60
2022-09-05T16:48:35.531Z,50.40
2022-09-05T16:51:18.203Z,50.80
2022-09-05T16:54:11.149Z,52.40
2022-09-05T16:56:51.235Z,54.50
2022-09-05T16:59:28.750Z,56.50
2022-09-05T17:02:36.539Z,58.60
2022-09-05T17:05:47.276Z,60.30
2022-09-05T17:08:29.956Z,62.10
2022-09-05T17:11:06.225Z,63.60
2022-09-05T17:13:57.888Z,65.00
2022-09-05T17:16:42.281Z,66.00
2022-09-05T17:19:22.392Z,66.90
2022-09-05T17:24:24.390Z,68.10
2022-09-05T17:29:26.427Z,69.10
2022-09-05T17:29:44.573Z,70.00
2022-09-05T17:33:56.406Z,71.80
2022-09-05T17:36:41.278Z,72.70
2022-09-05T17:39:44.333Z,73.30
2022-09-05T17:42:28.717Z,73.90
2022-09-05T17:45:09.733Z,74.90
2022-09-05T17:47:51.271Z,75.60
2022-09-05T17:50:28.096Z,76.50
2022-09-05T17:53:25.145Z,77.20
2022-09-05T17:56:00.225Z,77.60
2022-09-05T17:58:50.303Z,78.40
2022-09-05T18:01:26.900Z,79.60
2022-09-05T18:04:15.874Z,79.50
2022-09-05T18:13:14.101Z,82.40
2022-09-05T18:15:46.322Z,83.30
2022-09-05T18:22:06.452Z,83.70
2022-09-05T18:24:48.457Z,84.30
2022-09-05T18:30:30.235Z,85.60
2022-09-05T18:33:56.385Z,86.30
2022-09-05T18:35:57.901Z,86.80
2022-09-05T18:38:52.068Z,87.50
2022-09-05T18:41:24.991Z,88.00
2022-09-05T18:44:12.999Z,88.60
2022-09-05T18:47:03.223Z,89.10
2022-09-05T18:50:23.232Z,89.40
2022-09-05T18:52:41.465Z,90.10
2022-09-05T18:55:34.008Z,90.40
2022-09-05T18:58:26.600Z,90.40
2022-09-05T19:01:18.577Z,90.80
2022-09-05T19:03:56.088Z,91.20
2022-09-05T19:06:45.157Z,91.40
2022-09-05T19:09:28.440Z,91.60
2022-09-05T19:12:20.601Z,91.90
2022-09-05T19:15:00.866Z,92.10
2022-09-05T19:17:49.827Z,92.40
2022-09-05T19:20:32.440Z,92.70
2022-09-05T19:23:13.440Z,92.90
2022-09-05T19:25:53.724Z,93.30
2022-09-05T19:30:04.125Z,93.80
2022-09-05T19:36:46.285Z,93.90
2022-09-05T19:37:05.618Z,94.40
2022-09-05T19:37:36.566Z,94.80
2022-09-05T19:47:30.377Z,95.30
2022-09-05T19:47:35.921Z,96.00
2022-09-05T19:47:56.151Z,95.60
2022-09-05T19:49:10.537Z,96.50
2022-09-05T19:51:43.503Z,97.30
2022-09-05T19:54:26.714Z,97.80
2022-09-05T19:57:05.020Z,98.40
2022-09-05T19:59:39.968Z,99.00
2022-09-05T20:02:20.208Z,99.60
2022-09-05T20:04:56.577Z,99.90
2022-09-05T20:07:32.278Z,99.90
2022-09-05T20:10:05.680Z,99.90
2022-09-05T20:12:39.416Z,99.90
2022-09-05T20:15:36.080Z,99.90
2022-09-05T20:18:37.633Z,99.90
2022-09-05T20:21:22.575Z,99.90
2022-09-05T20:23:57.139Z,99.90
2022-09-05T20:26:34.035Z,99.90
2022-09-05T20:29:09.254Z,99.90
2022-09-05T20:31:43.351Z,99.90
2022-09-05T20:38:42.118Z,99.90
2022-09-05T20:43:14.457Z,99.90
2022-09-05T20:43:16.584Z,99.90
2022-09-05T20:43:37.035Z,99.90
2022-09-05T20:47:24.733Z,99.90
2022-09-05T20:54:12.896Z,99.90
2022-09-05T20:54:17.851Z,99.90
2022-09-05T20:55:42.335Z,99.90
2022-09-05T20:58:20.876Z,99.90
2022-09-05T21:01:19.510Z,99.90
2022-09-05T21:03:54.656Z,99.90
2022-09-05T21:06:37.132Z,99.90
2022-09-05T21:09:25.143Z,99.90
2022-09-05T21:12:05.385Z,99.90
2022-09-05T21:14:39.958Z,99.90
2022-09-05T21:17:20.085Z,99.90
2022-09-05T21:19:59.728Z,99.90
2022-09-05T21:22:43.468Z,99.90
2022-09-05T21:25:17.022Z,99.90
2022-09-05T21:28:06.974Z,99.90
2022-09-05T21:30:48.802Z,99.90
2022-09-05T21:33:44.969Z,99.90
2022-09-05T21:36:19.724Z,99.90
2022-09-05T21:38:52.518Z,99.90
2022-09-05T21:41:25.070Z,99.90
2022-09-05T21:47:38.477Z,99.90
2022-09-05T21:47:40.084Z,99.90
2022-09-05T21:49:49.360Z,99.90
2022-09-05T21:52:22.273Z,99.90
2022-09-05T21:59:13.601Z,99.90
2022-09-05T21:59:27.730Z,99.90
2022-09-05T22:00:45.031Z,99.90
2022-09-05T22:03:24.504Z,99.90
2022-09-05T22:05:59.093Z,99.90
2022-09-05T22:08:37.529Z,99.90
2022-09-05T22:11:12.580Z,99.90
2022-09-05T22:13:46.720Z,99.90
2022-09-05T22:16:19.582Z,99.90
2022-09-05T22:18:52.452Z,99.90
2022-09-05T22:21:34.137Z,99.90
2022-09-05T22:24:10.965Z,99.90
2022-09-05T22:27:07.449Z,99.90
2022-09-05T22:29:40.019Z,99.90
2022-09-05T22:32:12.786Z,99.90
2022-09-05T22:34:45.424Z,99.90
2022-09-05T22:37:18.177Z,99.90
2022-09-05T22:39:50.757Z,99.90
2022-09-05T22:42:23.781Z,99.90
2022-09-05T22:44:56.349Z,99.90
2022-09-05T22:47:30.168Z,99.90
2022-09-05T22:50:02.800Z,99.90
2022-09-05T22:52:35.767Z,99.90
2022-09-05T22:55:08.887Z,99.90
2022-09-05T22:57:42.475Z,99.90
2022-09-05T23:00:15.280Z,99.90
2022-09-05T23:02:52.206Z,99.90
2022-09-05T23:05:25.538Z,99.90
2022-09-05T23:07:59.578Z,99.90
2022-09-05T23:10:32.785Z,99.90
2022-09-05T23:13:09.956Z,99.90
2022-09-05T23:15:42.569Z,99.90
2022-09-05T23:18:15.407Z,99.90
2022-09-05T23:20:47.946Z,99.90
2022-09-05T23:23:20.746Z,99.90
2022-09-05T23:25:53.279Z,99.90
2022-09-05T23:28:26.258Z,99.90
2022-09-05T23:31:03.093Z,99.90
2022-09-05T23:33:36.686Z,99.90
2022-09-05T23:36:13.648Z,99.90
2022-09-05T23:38:46.742Z,99.90
2022-09-05T23:41:19.262Z,99.90
2022-09-05T23:43:52.094Z,99.90
2022-09-05T23:46:24.942Z,99.90
2022-09-05T23:48:58.146Z,99.90
2022-09-05T23:51:30.696Z,99.90
2022-09-05T23:54:03.628Z,99.90
2022-09-05T23:56:36.278Z,99.90
2022-09-05T23:59:09.106Z,99.90
